Terminal Aerodrome Forecast
Issued by NWS

Home | Current Version | Previous Version | Text Only | Print | Product List | Glossary Off
Versions: 1 2 3 4 5 6 7 8 9 10 11 12 13 14 15

000
FTUS43 KBIS 311132
TAFJMS
TAF
KJMS 311132Z 3112/0112 00000KT P6SM BKN080
     FM311500 12009KT P6SM SCT080
     FM311700 13011KT P6SM SCT250
     FM010800 13007KT P6SM SCT250=

USA.gov is the U.S. government's official web portal to all federal, state and local government web resources and services.